createdAt,value
2022-08-26T00:01:53.039Z,101635.34
2022-08-26T00:04:21.739Z,101632.00
2022-08-26T00:06:49.318Z,101641.69
2022-08-26T00:09:16.958Z,101624.19
2022-08-26T00:11:44.653Z,101628.56
2022-08-26T00:14:13.699Z,101640.72
2022-08-26T00:16:48.238Z,101642.38
2022-08-26T00:19:17.818Z,101635.53
2022-08-26T00:21:45.835Z,101641.22
2022-08-26T00:24:13.510Z,101646.88
2022-08-26T00:26:41.361Z,101648.38
2022-08-26T00:29:09.425Z,101643.91
2022-08-26T00:31:37.221Z,101645.91
2022-08-26T00:34:06.219Z,101645.91
2022-08-26T00:36:33.763Z,101643.06
2022-08-26T00:39:01.930Z,101649.91
2022-08-26T00:41:30.041Z,101643.44
2022-08-26T00:43:57.554Z,101657.59
2022-08-26T00:46:28.826Z,101651.44
2022-08-26T00:49:00.699Z,101658.63
2022-08-26T00:51:30.130Z,101653.31
2022-08-26T00:54:00.061Z,101657.66
2022-08-26T00:56:30.359Z,101630.84
2022-08-26T00:58:59.826Z,101622.69
2022-08-26T01:01:28.278Z,101612.03
2022-08-26T01:03:58.735Z,101635.88
2022-08-26T01:06:28.483Z,101624.03
2022-08-26T01:08:57.735Z,101635.25
2022-08-26T01:11:26.062Z,101648.13
2022-08-26T01:13:55.204Z,101654.59
2022-08-26T01:16:24.866Z,101656.28
2022-08-26T01:18:53.845Z,101650.25
2022-08-26T01:21:27.238Z,101653.09
2022-08-26T01:23:57.524Z,101653.78
2022-08-26T01:26:26.814Z,101647.97
2022-08-26T01:28:55.881Z,101646.66
2022-08-26T01:31:24.749Z,101661.50
2022-08-26T01:33:56.537Z,101668.16
2022-08-26T01:36:25.291Z,101679.38
2022-08-26T01:38:52.892Z,101670.06
2022-08-26T01:41:27.497Z,101665.22
2022-08-26T01:43:57.922Z,101665.56
2022-08-26T01:46:27.204Z,101660.22
2022-08-26T01:48:55.658Z,101661.41
2022-08-26T01:51:24.304Z,101659.25
2022-08-26T01:53:51.849Z,101657.94
2022-08-26T01:56:22.495Z,101665.44
2022-08-26T01:58:52.594Z,101664.13
2022-08-26T02:01:21.198Z,101664.47
2022-08-26T02:03:52.557Z,101659.50
2022-08-26T02:06:20.623Z,101661.00
2022-08-26T02:08:50.019Z,101670.66
2022-08-26T02:11:18.457Z,101660.00
2022-08-26T02:13:49.255Z,101663.16
2022-08-26T02:16:17.301Z,101666.31
2022-08-26T02:18:46.964Z,101657.34
2022-08-26T02:21:14.738Z,101657.34
2022-08-26T02:23:42.927Z,101655.69
2022-08-26T02:26:17.110Z,101662.50
2022-08-26T02:28:53.356Z,101664.00
2022-08-26T02:31:20.946Z,101663.53
2022-08-26T02:33:49.241Z,101655.41
2022-08-26T02:36:20.108Z,101655.41
2022-08-26T02:38:47.948Z,101657.38
2022-08-26T02:41:15.795Z,101668.22
2022-08-26T02:43:47.100Z,101671.88
2022-08-26T02:46:27.733Z,101668.22
2022-08-26T02:48:55.636Z,101669.06
2022-08-26T02:51:23.172Z,101669.06
2022-08-26T02:53:50.837Z,101670.56
2022-08-26T02:56:18.756Z,101675.72
2022-08-26T02:58:47.868Z,101675.22
2022-08-26T03:01:23.321Z,101664.56
2022-08-26T03:03:50.979Z,101671.75
2022-08-26T03:06:19.033Z,101677.72
2022-08-26T03:08:46.607Z,101677.72
2022-08-26T03:11:14.315Z,101681.41
2022-08-26T03:13:43.076Z,101666.41
2022-08-26T03:16:12.080Z,101659.09
2022-08-26T03:18:40.130Z,101660.28
2022-08-26T03:21:07.859Z,101667.94
2022-08-26T03:23:35.951Z,101659.94
2022-08-26T03:26:04.141Z,101661.91
2022-08-26T03:28:31.847Z,101664.41
2022-08-26T03:30:58.903Z,101662.41
2022-08-26T03:33:28.186Z,101663.25
2022-08-26T03:35:56.830Z,101663.25
2022-08-26T03:38:25.321Z,101664.41
2022-08-26T03:40:53.294Z,101657.59
2022-08-26T03:43:22.303Z,101655.09
2022-08-26T03:45:50.856Z,101655.47
2022-08-26T03:48:18.878Z,101657.47
2022-08-26T03:50:47.754Z,101660.97
2022-08-26T03:53:16.376Z,101663.28
2022-08-26T03:55:48.187Z,101662.81
2022-08-26T03:58:20.466Z,101672.44
2022-08-26T04:00:48.039Z,101672.44
2022-08-26T04:03:41.937Z,101671.28
2022-08-26T04:06:10.828Z,101672.13
2022-08-26T04:08:38.572Z,101670.94
2022-08-26T04:11:06.354Z,101672.63
2022-08-26T04:13:33.974Z,101666.13
2022-08-26T04:16:01.558Z,101672.13
2022-08-26T04:18:36.895Z,101664.47
2022-08-26T04:21:05.405Z,101670.94
2022-08-26T04:23:47.496Z,101669.28
2022-08-26T04:26:15.854Z,101656.66
2022-08-26T04:28:43.724Z,101657.47
2022-08-26T04:31:13.272Z,101655.81
2022-08-26T04:33:41.897Z,101655.81
2022-08-26T04:36:09.985Z,101655.81
2022-08-26T04:38:38.953Z,101662.63
2022-08-26T04:41:15.203Z,101659.81
2022-08-26T04:43:44.345Z,101658.16
2022-08-26T04:46:12.822Z,101662.97
2022-08-26T04:48:41.006Z,101670.28
2022-08-26T04:51:09.175Z,101677.44
2022-08-26T04:53:37.555Z,101676.63
2022-08-26T04:56:08.584Z,101674.47
2022-08-26T04:58:37.647Z,101688.94
2022-08-26T05:01:05.770Z,101688.13
2022-08-26T05:03:33.390Z,101682.81
2022-08-26T05:06:04.976Z,101689.31
2022-08-26T05:08:32.709Z,101690.97
2022-08-26T05:11:00.405Z,101692.59
2022-08-26T05:13:29.335Z,101690.59
2022-08-26T05:16:01.255Z,101693.94
2022-08-26T05:18:30.263Z,101691.94
2022-08-26T05:20:58.057Z,101692.75
2022-08-26T05:23:26.095Z,101694.44
2022-08-26T05:25:58.887Z,101699.25
2022-08-26T05:28:28.316Z,101699.25
2022-08-26T05:30:57.905Z,101711.72
2022-08-26T05:33:25.604Z,101703.25
2022-08-26T05:35:53.127Z,101706.06
2022-08-26T05:38:22.458Z,101708.06
2022-08-26T05:40:52.797Z,101711.72
2022-08-26T05:43:20.638Z,101705.25
2022-08-26T05:45:49.623Z,101705.25
2022-08-26T05:48:22.708Z,101705.25
2022-08-26T05:50:52.848Z,101707.25
2022-08-26T05:53:22.145Z,101712.91
2022-08-26T05:55:52.750Z,101709.75
2022-08-26T05:58:21.200Z,101714.22
2022-08-26T06:00:57.337Z,101719.06
2022-08-26T06:03:26.287Z,101711.41
2022-08-26T06:05:54.148Z,101723.56
2022-08-26T06:08:22.255Z,101717.56
2022-08-26T06:10:52.517Z,101713.91
2022-08-26T06:13:20.796Z,101715.56
2022-08-26T06:15:49.686Z,101723.72
2022-08-26T06:18:18.613Z,101718.06
2022-08-26T06:20:57.887Z,101729.03
2022-08-26T06:23:43.648Z,101729.53
2022-08-26T06:26:11.821Z,101734.38
2022-08-26T06:28:39.330Z,101730.22
2022-08-26T06:31:07.001Z,101732.19
2022-08-26T06:33:35.849Z,101729.72
2022-08-26T06:36:05.042Z,101733.38
2022-08-26T06:38:32.730Z,101746.34
2022-08-26T06:41:00.965Z,101747.34
2022-08-26T06:43:29.569Z,101747.34
2022-08-26T06:46:04.950Z,101751.84
2022-08-26T06:48:32.838Z,101755.16
2022-08-26T06:51:06.034Z,101759.66
2022-08-26T06:53:33.780Z,101761.78
2022-08-26T06:56:03.963Z,101761.13
2022-08-26T06:58:31.603Z,101757.13
2022-08-26T07:01:03.783Z,101766.44
2022-08-26T07:03:39.798Z,101761.97
2022-08-26T07:06:09.445Z,101760.78
2022-08-26T07:08:37.991Z,101770.44
2022-08-26T07:11:06.591Z,101764.28
2022-08-26T07:13:36.856Z,101761.78
2022-08-26T07:16:04.957Z,101761.78
2022-08-26T07:18:32.618Z,101768.78
2022-08-26T07:21:02.432Z,101766.13
2022-08-26T07:23:31.719Z,101764.28
2022-08-26T07:25:59.504Z,101766.44
2022-08-26T07:28:28.332Z,101767.78
2022-08-26T07:30:56.177Z,101774.78
2022-08-26T07:33:25.722Z,101783.41
2022-08-26T07:35:53.240Z,101781.91
2022-08-26T07:38:20.751Z,101775.91
2022-08-26T07:40:49.626Z,101788.22
2022-08-26T07:43:18.441Z,101783.75
2022-08-26T07:45:47.432Z,101788.88
2022-08-26T07:48:15.096Z,101787.84
2022-08-26T07:50:49.243Z,101781.69
2022-08-26T07:53:18.262Z,101787.97
2022-08-26T07:55:47.195Z,101789.44
2022-08-26T07:58:16.921Z,101787.94
2022-08-26T08:00:44.560Z,101790.44
2022-08-26T08:03:12.329Z,101789.25
2022-08-26T08:05:41.847Z,101801.94
2022-08-26T08:08:27.344Z,101795.44
2022-08-26T08:10:56.228Z,101795.75
2022-08-26T08:13:25.198Z,101798.59
2022-08-26T08:15:52.745Z,101801.09
2022-08-26T08:18:20.767Z,101807.59
2022-08-26T08:20:59.174Z,101806.75
2022-08-26T08:23:32.975Z,101800.41
2022-08-26T08:26:04.627Z,101809.53
2022-08-26T08:28:33.676Z,101814.69
2022-08-26T08:31:02.143Z,101805.50
2022-08-26T08:33:31.164Z,101818.00
2022-08-26T08:35:59.093Z,101822.50
2022-08-26T08:38:27.171Z,101819.84
2022-08-26T08:40:54.777Z,101821.16
2022-08-26T08:43:30.112Z,101822.78
2022-08-26T08:46:01.677Z,101824.13
2022-08-26T08:48:34.365Z,101830.44
2022-08-26T08:51:06.870Z,101827.75
2022-08-26T08:53:37.472Z,101822.56
2022-08-26T08:56:11.263Z,101821.25
2022-08-26T08:58:48.496Z,101815.00
2022-08-26T09:01:24.332Z,101822.50
2022-08-26T09:03:54.175Z,101820.50
2022-08-26T09:06:21.884Z,101817.31
2022-08-26T09:08:51.687Z,101821.66
2022-08-26T09:11:20.745Z,101822.84
2022-08-26T09:13:50.228Z,101816.47
2022-08-26T09:16:21.158Z,101821.13
2022-08-26T09:18:56.366Z,101831.75
2022-08-26T09:21:25.423Z,101830.25
2022-08-26T09:23:55.734Z,101833.91
2022-08-26T09:26:29.189Z,101830.25
2022-08-26T09:28:58.506Z,101836.41
2022-08-26T09:31:28.701Z,101838.06
2022-08-26T09:34:07.688Z,101842.22
2022-08-26T09:36:41.219Z,101845.84
2022-08-26T09:39:12.686Z,101843.91
2022-08-26T09:41:40.924Z,101828.84
2022-08-26T09:44:14.647Z,101837.94
2022-08-26T09:46:46.641Z,101842.25
2022-08-26T09:49:23.565Z,101843.56
2022-08-26T09:52:03.965Z,101832.00
2022-08-26T09:54:32.395Z,101838.81
2022-08-26T09:57:11.861Z,101839.81
2022-08-26T09:59:39.445Z,101832.69
2022-08-26T10:02:20.655Z,101827.31
2022-08-26T10:04:51.579Z,101838.25
2022-08-26T10:07:35.026Z,101841.81
2022-08-26T10:10:04.459Z,101841.91
2022-08-26T10:12:35.610Z,101841.44
2022-08-26T10:15:09.093Z,101836.41
2022-08-26T10:17:40.765Z,101833.22
2022-08-26T10:20:22.731Z,101840.91
2022-08-26T10:22:54.275Z,101835.72
2022-08-26T10:25:24.653Z,101828.66
2022-08-26T10:27:55.537Z,101832.47
2022-08-26T10:30:24.430Z,101837.97
2022-08-26T10:32:56.640Z,101831.81
2022-08-26T10:35:26.941Z,101830.44
2022-08-26T10:37:57.427Z,101836.28
2022-08-26T10:40:26.461Z,101834.06
2022-08-26T10:42:57.731Z,101837.75
2022-08-26T10:45:27.711Z,101838.69
2022-08-26T10:48:01.575Z,101837.03
2022-08-26T10:50:32.956Z,101845.28
2022-08-26T10:53:03.034Z,101844.19
2022-08-26T10:55:34.876Z,101838.75
2022-08-26T10:58:09.104Z,101841.59
2022-08-26T11:01:01.060Z,101841.16
2022-08-26T11:03:36.116Z,101831.44
2022-08-26T11:06:26.846Z,101848.13
2022-08-26T11:08:54.965Z,101842.38
2022-08-26T11:11:40.918Z,101837.38
2022-08-26T11:14:09.902Z,101845.94
2022-08-26T11:16:42.991Z,101841.53
2022-08-26T11:19:13.705Z,101835.56
2022-08-26T11:21:45.124Z,101841.56
2022-08-26T11:24:34.165Z,101846.75
2022-08-26T11:27:03.416Z,101842.34
2022-08-26T11:29:49.801Z,101847.47
2022-08-26T11:32:25.366Z,101853.31
2022-08-26T11:34:59.297Z,101847.06
2022-08-26T11:37:32.780Z,101843.72
2022-08-26T11:40:02.832Z,101849.44
2022-08-26T11:42:34.253Z,101845.50
2022-08-26T11:45:05.706Z,101845.75
2022-08-26T11:47:33.586Z,101841.41
2022-08-26T11:50:14.242Z,101842.19
2022-08-26T11:52:41.830Z,101842.59
2022-08-26T11:55:11.420Z,101838.28
2022-08-26T11:57:43.061Z,101837.81
2022-08-26T12:00:14.272Z,101835.41
2022-08-26T12:02:44.750Z,101839.56
2022-08-26T12:05:17.630Z,101841.13
2022-08-26T12:07:50.778Z,101840.88
2022-08-26T12:10:26.619Z,101837.91
2022-08-26T12:12:58.020Z,101841.84
2022-08-26T12:15:26.946Z,101839.47
2022-08-26T12:17:57.965Z,101836.97
2022-08-26T12:20:45.961Z,101849.78
2022-08-26T12:23:23.812Z,101843.50
2022-08-26T12:25:52.009Z,101843.63
2022-08-26T12:28:21.464Z,101845.72
2022-08-26T12:31:00.946Z,101846.34
2022-08-26T12:33:28.880Z,101850.38
2022-08-26T12:35:59.444Z,101844.66
2022-08-26T12:38:27.814Z,101853.69
2022-08-26T12:40:55.884Z,101861.47
2022-08-26T12:43:43.023Z,101855.50
2022-08-26T12:46:12.596Z,101860.28
2022-08-26T12:48:42.579Z,101861.09
2022-08-26T12:51:15.988Z,101849.22
2022-08-26T12:53:44.680Z,101858.91
2022-08-26T12:56:20.362Z,101852.28
2022-08-26T12:59:00.689Z,101863.47
2022-08-26T13:01:36.475Z,101866.22
2022-08-26T13:04:05.404Z,101865.81
2022-08-26T13:06:35.001Z,101863.78
2022-08-26T13:09:05.566Z,101856.84
2022-08-26T13:11:34.243Z,101866.47
2022-08-26T13:14:02.476Z,101861.03
2022-08-26T13:16:34.849Z,101864.78
2022-08-26T13:19:03.918Z,101871.31
2022-08-26T13:21:37.492Z,101865.25
2022-08-26T13:24:12.690Z,101866.63
2022-08-26T13:26:40.741Z,101861.84
2022-08-26T13:29:10.398Z,101864.31
2022-08-26T13:31:39.598Z,101868.72
2022-08-26T13:34:09.418Z,101864.41
2022-08-26T13:36:37.101Z,101859.78
2022-08-26T13:39:04.948Z,101854.09
2022-08-26T13:41:33.945Z,101853.72
2022-08-26T13:44:01.478Z,101852.91
2022-08-26T13:46:29.596Z,101851.97
2022-08-26T13:48:57.264Z,101851.03
2022-08-26T13:51:25.474Z,101853.34
2022-08-26T13:53:53.427Z,101853.72
2022-08-26T13:56:21.424Z,101849.69
2022-08-26T13:58:50.436Z,101854.56
2022-08-26T14:01:18.353Z,101859.22
2022-08-26T14:03:46.192Z,101851.75
2022-08-26T14:06:14.229Z,101848.06
2022-08-26T14:08:42.517Z,101850.56
2022-08-26T14:11:10.204Z,101844.22
2022-08-26T14:13:38.508Z,101845.94
2022-08-26T14:16:09.981Z,101844.56
2022-08-26T14:18:41.837Z,101839.59
2022-08-26T14:21:12.425Z,101843.25
2022-08-26T14:23:40.100Z,101840.75
2022-08-26T14:26:10.873Z,101841.09
2022-08-26T14:28:41.911Z,101836.59
2022-08-26T14:31:10.905Z,101835.75
2022-08-26T14:33:39.065Z,101824.97
2022-08-26T14:36:24.604Z,101836.19
2022-08-26T14:38:52.396Z,101828.69
2022-08-26T14:41:20.827Z,101823.81
2022-08-26T14:43:49.688Z,101830.81
2022-08-26T14:46:18.915Z,101828.56
2022-08-26T14:48:46.615Z,101829.47
2022-08-26T14:51:14.188Z,101829.72
2022-08-26T14:53:59.155Z,101829.03
2022-08-26T14:56:26.753Z,101829.56
2022-08-26T14:58:54.295Z,101830.53
2022-08-26T15:01:23.291Z,101831.06
2022-08-26T15:03:51.007Z,101828.44
2022-08-26T15:06:18.584Z,101831.31
2022-08-26T15:08:46.127Z,101834.97
2022-08-26T15:11:13.670Z,101842.22
2022-08-26T15:13:41.183Z,101840.44
2022-08-26T15:16:08.744Z,101838.78
2022-08-26T15:18:37.742Z,101852.56
2022-08-26T15:21:05.599Z,101841.78
2022-08-26T15:23:33.177Z,101839.91
2022-08-26T15:26:00.712Z,101842.38
2022-08-26T15:28:28.313Z,101837.44
2022-08-26T15:30:55.868Z,101839.22
2022-08-26T15:33:23.430Z,101840.75
2022-08-26T15:35:52.419Z,101831.84
2022-08-26T15:38:22.210Z,101828.78
2022-08-26T15:40:49.942Z,101831.59
2022-08-26T15:43:28.395Z,101829.47
2022-08-26T15:45:56.749Z,101824.72
2022-08-26T15:48:24.522Z,101824.47
2022-08-26T15:50:54.090Z,101831.59
2022-08-26T15:53:22.600Z,101835.38
2022-08-26T15:55:50.930Z,101837.41
2022-08-26T15:58:19.880Z,101834.91
2022-08-26T16:00:47.473Z,101831.22
2022-08-26T16:03:15.063Z,101830.66
2022-08-26T16:05:43.468Z,101827.22
2022-08-26T16:08:13.382Z,101830.19
2022-08-26T16:10:46.495Z,101827.44
2022-08-26T16:13:16.957Z,101825.59
2022-08-26T16:15:44.577Z,101825.94
2022-08-26T16:18:13.103Z,101823.94
2022-08-26T16:20:55.317Z,101818.00
2022-08-26T16:23:37.442Z,101824.41
2022-08-26T16:26:08.537Z,101825.22
2022-08-26T16:28:38.711Z,101828.06
2022-08-26T16:31:06.819Z,101833.50
2022-08-26T16:33:34.413Z,101820.22
2022-08-26T16:36:01.942Z,101817.59
2022-08-26T16:38:29.548Z,101812.59
2022-08-26T16:40:59.385Z,101810.81
2022-08-26T16:43:26.940Z,101816.41
2022-08-26T16:45:54.646Z,101813.91
2022-08-26T16:48:23.353Z,101816.25
2022-08-26T16:50:51.209Z,101815.66
2022-08-26T16:53:19.110Z,101822.72
2022-08-26T16:55:47.326Z,101822.50
2022-08-26T16:58:16.700Z,101820.56
2022-08-26T17:00:45.200Z,101816.25
2022-08-26T17:03:13.164Z,101810.91
2022-08-26T17:05:41.154Z,101810.00
2022-08-26T17:08:08.919Z,101811.94
2022-08-26T17:10:36.706Z,101813.03
2022-08-26T17:13:04.305Z,101824.47
2022-08-26T17:15:33.251Z,101815.53
2022-08-26T17:18:00.914Z,101817.59
2022-08-26T17:20:29.268Z,101815.81
2022-08-26T17:22:57.127Z,101807.81
2022-08-26T17:25:25.751Z,101813.09
2022-08-26T17:27:53.946Z,101813.09
2022-08-26T17:30:22.261Z,101818.78
2022-08-26T17:32:51.498Z,101827.00
2022-08-26T17:35:19.162Z,101831.19
2022-08-26T17:37:46.943Z,101834.91
2022-08-26T17:40:16.272Z,101840.75
2022-08-26T17:42:44.260Z,101838.94
2022-08-26T17:45:12.256Z,101835.09
2022-08-26T17:47:40.109Z,101838.94
2022-08-26T17:50:10.434Z,101837.66
2022-08-26T17:52:38.652Z,101840.31
2022-08-26T17:55:06.867Z,101846.16
2022-08-26T17:57:37.350Z,101845.50
2022-08-26T18:00:11.576Z,101851.00
2022-08-26T18:02:39.664Z,101844.69
2022-08-26T18:05:08.286Z,101838.88
2022-08-26T18:07:44.047Z,101849.50
2022-08-26T18:10:13.315Z,101848.84
2022-08-26T18:12:41.662Z,101847.88
2022-08-26T18:15:10.541Z,101848.03
2022-08-26T18:17:39.196Z,101845.84
2022-08-26T18:20:08.362Z,101845.34
2022-08-26T18:22:37.337Z,101848.34
2022-08-26T18:25:05.994Z,101850.03
2022-08-26T18:27:35.563Z,101855.84
2022-08-26T18:30:03.722Z,101853.19
2022-08-26T18:32:31.447Z,101853.00
2022-08-26T18:34:59.746Z,101860.19
2022-08-26T18:37:30.947Z,101861.19
2022-08-26T18:40:00.872Z,101857.34
2022-08-26T18:42:29.920Z,101867.97
2022-08-26T18:44:57.578Z,101867.81
2022-08-26T18:47:25.244Z,101871.31
2022-08-26T18:49:52.879Z,101870.81
2022-08-26T18:52:20.487Z,101862.13
2022-08-26T18:54:48.135Z,101856.81
2022-08-26T18:57:17.297Z,101857.47
2022-08-26T18:59:44.969Z,101862.94
2022-08-26T19:02:12.740Z,101856.28
2022-08-26T19:04:40.541Z,101868.22
2022-08-26T19:07:08.370Z,101856.75
2022-08-26T19:09:36.089Z,101854.56
2022-08-26T19:12:04.666Z,101864.88
2022-08-26T19:14:35.750Z,101860.38
2022-08-26T19:17:03.463Z,101862.69
2022-08-26T19:19:31.765Z,101861.38
2022-08-26T19:21:59.385Z,101873.00
2022-08-26T19:24:28.456Z,101868.00
2022-08-26T19:26:58.337Z,101873.16
2022-08-26T19:29:27.461Z,101873.81
2022-08-26T19:31:56.435Z,101873.63
2022-08-26T19:34:24.110Z,101879.91
2022-08-26T19:36:53.167Z,101885.06
2022-08-26T19:39:21.162Z,101879.41
2022-08-26T19:41:48.729Z,101882.59
2022-08-26T19:44:37.722Z,101883.75
2022-08-26T19:47:07.801Z,101879.25
2022-08-26T19:49:35.779Z,101874.25
2022-08-26T19:52:03.569Z,101880.53
2022-08-26T19:54:31.327Z,101873.53
2022-08-26T19:56:58.878Z,101878.34
2022-08-26T19:59:26.427Z,101878.34
2022-08-26T20:02:01.033Z,101880.34
2022-08-26T20:04:30.695Z,101877.84
2022-08-26T20:07:00.571Z,101877.34
2022-08-26T20:09:28.598Z,101874.00
2022-08-26T20:11:56.782Z,101879.13
2022-08-26T20:14:25.086Z,101870.50
2022-08-26T20:16:52.731Z,101871.16
2022-08-26T20:19:37.845Z,101866.66
2022-08-26T20:22:06.850Z,101873.47
2022-08-26T20:24:35.507Z,101870.44
2022-08-26T20:27:07.773Z,101865.97
2022-08-26T20:29:36.052Z,101871.94
2022-08-26T20:32:05.848Z,101874.56
2022-08-26T20:34:33.766Z,101868.41
2022-08-26T20:37:02.044Z,101883.50
2022-08-26T20:39:31.003Z,101881.00
2022-08-26T20:41:59.085Z,101879.97
2022-08-26T20:44:27.058Z,101881.13
2022-08-26T20:46:55.246Z,101879.78
2022-08-26T20:49:23.077Z,101884.88
2022-08-26T20:51:51.832Z,101879.88
2022-08-26T20:54:19.783Z,101881.38
2022-08-26T20:56:50.013Z,101879.19
2022-08-26T20:59:17.595Z,101880.66
2022-08-26T21:01:45.694Z,101874.81
2022-08-26T21:04:14.785Z,101873.78
2022-08-26T21:06:43.800Z,101877.25
2022-08-26T21:09:20.139Z,101871.75
2022-08-26T21:11:50.707Z,101870.72
2022-08-26T21:14:18.901Z,101871.69
2022-08-26T21:16:47.226Z,101875.97
2022-08-26T21:19:15.826Z,101871.81
2022-08-26T21:21:44.423Z,101878.91
2022-08-26T21:24:12.128Z,101879.56
2022-08-26T21:26:39.759Z,101873.72
2022-08-26T21:29:09.677Z,101877.50
2022-08-26T21:31:40.982Z,101873.66
2022-08-26T21:34:12.565Z,101866.97
2022-08-26T21:36:40.110Z,101868.78
2022-08-26T21:39:11.477Z,101871.41
2022-08-26T21:41:39.835Z,101872.84
2022-08-26T21:44:09.225Z,101866.69
2022-08-26T21:46:37.378Z,101868.69
2022-08-26T21:49:06.867Z,101877.97
2022-08-26T21:51:35.506Z,101877.97
2022-08-26T21:54:05.643Z,101877.97
2022-08-26T21:56:39.542Z,101876.31
2022-08-26T21:59:07.159Z,101886.22
2022-08-26T22:01:36.389Z,101880.69
2022-08-26T22:04:05.025Z,101872.91
2022-08-26T22:06:33.532Z,101884.28
2022-08-26T22:09:01.107Z,101884.06
2022-08-26T22:11:29.316Z,101887.00
2022-08-26T22:13:57.911Z,101880.28
2022-08-26T22:16:26.807Z,101885.75
2022-08-26T22:18:55.857Z,101880.22
2022-08-26T22:21:25.301Z,101881.13
2022-08-26T22:23:58.281Z,101884.06
2022-08-26T22:26:27.726Z,101879.06
2022-08-26T22:28:58.429Z,101882.00
2022-08-26T22:31:28.219Z,101888.25
2022-08-26T22:34:07.597Z,101881.88
2022-08-26T22:36:35.504Z,101872.38
2022-08-26T22:39:07.313Z,101873.34
2022-08-26T22:41:38.183Z,101871.13
2022-08-26T22:44:05.685Z,101877.38
2022-08-26T22:46:34.749Z,101875.19
2022-08-26T22:49:04.418Z,101868.50
2022-08-26T22:51:33.384Z,101856.22
2022-08-26T22:54:00.901Z,101864.44
2022-08-26T22:56:28.437Z,101873.28
2022-08-26T22:58:55.962Z,101870.25
2022-08-26T23:01:23.849Z,101869.19
2022-08-26T23:03:51.467Z,101862.56
2022-08-26T23:06:19.092Z,101871.59
2022-08-26T23:08:48.000Z,101861.28
2022-08-26T23:11:15.847Z,101871.47
2022-08-26T23:13:43.385Z,101876.03
2022-08-26T23:16:12.058Z,101877.81
2022-08-26T23:18:40.324Z,101878.41
2022-08-26T23:21:07.862Z,101880.16
2022-08-26T23:23:35.582Z,101873.47
2022-08-26T23:26:06.367Z,101880.53
2022-08-26T23:28:34.085Z,101875.84
2022-08-26T23:31:01.748Z,101877.59
2022-08-26T23:33:49.603Z,101864.47
2022-08-26T23:36:17.945Z,101871.53
2022-08-26T23:38:52.401Z,101870.47
2022-08-26T23:41:22.184Z,101868.59
2022-08-26T23:43:49.979Z,101862.44
2022-08-26T23:46:17.584Z,101865.84
2022-08-26T23:48:45.232Z,101860.84
2022-08-26T23:51:30.373Z,101860.59
2022-08-26T23:53:58.486Z,101859.84
2022-08-26T23:56:27.552Z,101856.84
2022-08-26T23:58:55.689Z,101862.22
